sensor_id;sensor_type;location;lat;lon;timestamp;P1;durP1;ratioP1;P2;durP2;ratioP2
47617;SDS011;33336;36.728;-4.414;2022-07-18T00:01:42;3.53;;;2.28;;
47617;SDS011;33336;36.728;-4.414;2022-07-18T00:06:45;5.55;;;2.55;;
47617;SDS011;33336;36.728;-4.414;2022-07-18T00:11:49;5.13;;;2.33;;
47617;SDS011;33336;36.728;-4.414;2022-07-18T00:16:53;4.03;;;2.05;;
47617;SDS011;33336;36.728;-4.414;2022-07-18T00:21:56;3.10;;;1.88;;
47617;SDS011;33336;36.728;-4.414;2022-07-18T00:27:00;2.90;;;1.98;;
47617;SDS011;33336;36.728;-4.414;2022-07-18T00:32:06;3.30;;;2.33;;
47617;SDS011;33336;36.728;-4.414;2022-07-18T00:37:10;3.85;;;1.90;;
47617;SDS011;33336;36.728;-4.414;2022-07-18T00:42:15;1.85;;;1.65;;
47617;SDS011;33336;36.728;-4.414;2022-07-18T00:47:17;5.45;;;2.13;;
47617;SDS011;33336;36.728;-4.414;2022-07-18T00:52:21;2.75;;;1.90;;
47617;SDS011;33336;36.728;-4.414;2022-07-18T00:57:25;7.20;;;2.30;;
47617;SDS011;33336;36.728;-4.414;2022-07-18T01:02:29;5.30;;;2.35;;
47617;SDS011;33336;36.728;-4.414;2022-07-18T01:07:32;1.85;;;1.52;;
47617;SDS011;33336;36.728;-4.414;2022-07-18T01:12:38;3.03;;;1.85;;
47617;SDS011;33336;36.728;-4.414;2022-07-18T01:17:41;3.22;;;1.90;;
47617;SDS011;33336;36.728;-4.414;2022-07-18T01:22:46;2.25;;;1.95;;
47617;SDS011;33336;36.728;-4.414;2022-07-18T01:27:48;3.42;;;1.85;;
47617;SDS011;33336;36.728;-4.414;2022-07-18T01:32:55;3.17;;;1.70;;
47617;SDS011;33336;36.728;-4.414;2022-07-18T01:38:00;2.85;;;1.80;;
47617;SDS011;33336;36.728;-4.414;2022-07-18T01:43:04;2.55;;;1.58;;
47617;SDS011;33336;36.728;-4.414;2022-07-18T01:48:07;3.55;;;2.05;;
47617;SDS011;33336;36.728;-4.414;2022-07-18T01:53:11;4.53;;;1.95;;
47617;SDS011;33336;36.728;-4.414;2022-07-18T01:58:14;2.40;;;1.60;;
47617;SDS011;33336;36.728;-4.414;2022-07-18T02:03:18;2.95;;;1.77;;
47617;SDS011;33336;36.728;-4.414;2022-07-18T02:08:22;2.38;;;1.33;;
47617;SDS011;33336;36.728;-4.414;2022-07-18T02:13:26;3.47;;;1.92;;
47617;SDS011;33336;36.728;-4.414;2022-07-18T02:18:29;3.85;;;1.73;;
47617;SDS011;33336;36.728;-4.414;2022-07-18T02:23:35;5.72;;;2.33;;
47617;SDS011;33336;36.728;-4.414;2022-07-18T02:28:38;3.63;;;2.08;;
47617;SDS011;33336;36.728;-4.414;2022-07-18T02:33:41;2.60;;;1.52;;
47617;SDS011;33336;36.728;-4.414;2022-07-18T02:38:46;3.15;;;1.95;;
47617;SDS011;33336;36.728;-4.414;2022-07-18T02:43:49;4.03;;;1.75;;
47617;SDS011;33336;36.728;-4.414;2022-07-18T02:48:52;2.00;;;1.70;;
47617;SDS011;33336;36.728;-4.414;2022-07-18T02:53:57;4.45;;;1.80;;
47617;SDS011;33336;36.728;-4.414;2022-07-18T02:58:59;4.45;;;1.88;;
47617;SDS011;33336;36.728;-4.414;2022-07-18T03:04:03;2.42;;;2.00;;
47617;SDS011;33336;36.728;-4.414;2022-07-18T03:09:08;3.28;;;1.55;;
47617;SDS011;33336;36.728;-4.414;2022-07-18T03:14:11;4.85;;;1.65;;
47617;SDS011;33336;36.728;-4.414;2022-07-18T03:19:15;3.47;;;1.42;;
47617;SDS011;33336;36.728;-4.414;2022-07-18T03:24:20;2.22;;;1.50;;
47617;SDS011;33336;36.728;-4.414;2022-07-18T03:29:23;2.53;;;1.80;;
47617;SDS011;33336;36.728;-4.414;2022-07-18T03:34:26;2.75;;;1.60;;
47617;SDS011;33336;36.728;-4.414;2022-07-18T03:39:30;2.88;;;1.83;;
47617;SDS011;33336;36.728;-4.414;2022-07-18T03:44:33;4.82;;;2.00;;
47617;SDS011;33336;36.728;-4.414;2022-07-18T03:49:36;2.50;;;1.65;;
47617;SDS011;33336;36.728;-4.414;2022-07-18T03:54:40;3.65;;;1.80;;
47617;SDS011;33336;36.728;-4.414;2022-07-18T03:59:43;4.05;;;1.77;;
47617;SDS011;33336;36.728;-4.414;2022-07-18T04:04:46;2.35;;;1.75;;
47617;SDS011;33336;36.728;-4.414;2022-07-18T04:09:50;3.28;;;2.25;;
47617;SDS011;33336;36.728;-4.414;2022-07-18T04:14:54;3.45;;;1.90;;
47617;SDS011;33336;36.728;-4.414;2022-07-18T04:19:57;3.55;;;1.73;;
47617;SDS011;33336;36.728;-4.414;2022-07-18T04:25:02;4.68;;;1.65;;
47617;SDS011;33336;36.728;-4.414;2022-07-18T04:30:05;4.20;;;1.85;;
47617;SDS011;33336;36.728;-4.414;2022-07-18T04:35:10;7.07;;;2.13;;
47617;SDS011;33336;36.728;-4.414;2022-07-18T04:40:15;3.03;;;1.90;;
47617;SDS011;33336;36.728;-4.414;2022-07-18T04:45:18;3.20;;;2.03;;
47617;SDS011;33336;36.728;-4.414;2022-07-18T04:50:23;2.78;;;1.85;;
47617;SDS011;33336;36.728;-4.414;2022-07-18T04:55:29;3.75;;;2.03;;
47617;SDS011;33336;36.728;-4.414;2022-07-18T05:00:31;4.28;;;2.63;;
47617;SDS011;33336;36.728;-4.414;2022-07-18T05:05:34;3.15;;;1.77;;
47617;SDS011;33336;36.728;-4.414;2022-07-18T05:10:38;3.92;;;1.60;;
47617;SDS011;33336;36.728;-4.414;2022-07-18T05:15:42;3.53;;;1.88;;
47617;SDS011;33336;36.728;-4.414;2022-07-18T05:20:45;4.50;;;2.08;;
47617;SDS011;33336;36.728;-4.414;2022-07-18T05:25:51;2.95;;;2.13;;
47617;SDS011;33336;36.728;-4.414;2022-07-18T05:30:53;4.13;;;2.25;;
47617;SDS011;33336;36.728;-4.414;2022-07-18T05:35:57;5.85;;;2.40;;
47617;SDS011;33336;36.728;-4.414;2022-07-18T05:41:01;7.20;;;2.28;;
47617;SDS011;33336;36.728;-4.414;2022-07-18T05:46:05;4.80;;;2.00;;
47617;SDS011;33336;36.728;-4.414;2022-07-18T05:51:08;3.72;;;1.92;;
47617;SDS011;33336;36.728;-4.414;2022-07-18T05:56:14;13.57;;;2.50;;
47617;SDS011;33336;36.728;-4.414;2022-07-18T06:01:16;4.10;;;2.15;;
47617;SDS011;33336;36.728;-4.414;2022-07-18T06:06:21;3.90;;;2.05;;
47617;SDS011;33336;36.728;-4.414;2022-07-18T06:11:27;8.02;;;2.83;;
47617;SDS011;33336;36.728;-4.414;2022-07-18T06:16:30;2.95;;;1.98;;
47617;SDS011;33336;36.728;-4.414;2022-07-18T06:21:33;4.55;;;1.67;;
47617;SDS011;33336;36.728;-4.414;2022-07-18T06:26:39;5.63;;;1.98;;
47617;SDS011;33336;36.728;-4.414;2022-07-18T06:31:41;11.23;;;2.17;;
47617;SDS011;33336;36.728;-4.414;2022-07-18T06:36:46;8.93;;;2.40;;
47617;SDS011;33336;36.728;-4.414;2022-07-18T06:41:50;11.95;;;2.38;;
47617;SDS011;33336;36.728;-4.414;2022-07-18T06:46:54;10.80;;;2.58;;
47617;SDS011;33336;36.728;-4.414;2022-07-18T06:51:57;8.15;;;2.47;;
47617;SDS011;33336;36.728;-4.414;2022-07-18T06:57:03;7.72;;;2.60;;
47617;SDS011;33336;36.728;-4.414;2022-07-18T07:02:07;9.60;;;2.70;;
47617;SDS011;33336;36.728;-4.414;2022-07-18T07:07:12;10.13;;;2.33;;
47617;SDS011;33336;36.728;-4.414;2022-07-18T07:12:17;6.55;;;2.55;;
47617;SDS011;33336;36.728;-4.414;2022-07-18T07:17:20;8.90;;;2.60;;
47617;SDS011;33336;36.728;-4.414;2022-07-18T07:22:23;8.25;;;2.33;;
47617;SDS011;33336;36.728;-4.414;2022-07-18T07:27:29;7.00;;;2.20;;
47617;SDS011;33336;36.728;-4.414;2022-07-18T07:32:33;12.82;;;2.65;;
47617;SDS011;33336;36.728;-4.414;2022-07-18T07:37:37;9.25;;;2.42;;
47617;SDS011;33336;36.728;-4.414;2022-07-18T07:42:42;9.75;;;2.17;;
47617;SDS011;33336;36.728;-4.414;2022-07-18T07:47:46;9.32;;;2.38;;
47617;SDS011;33336;36.728;-4.414;2022-07-18T07:52:49;9.50;;;2.10;;
47617;SDS011;33336;36.728;-4.414;2022-07-18T07:57:53;11.25;;;2.60;;
47617;SDS011;33336;36.728;-4.414;2022-07-18T08:02:57;8.80;;;2.63;;
47617;SDS011;33336;36.728;-4.414;2022-07-18T08:08:03;7.50;;;2.42;;
47617;SDS011;33336;36.728;-4.414;2022-07-18T08:13:08;8.63;;;1.83;;
47617;SDS011;33336;36.728;-4.414;2022-07-18T08:18:11;4.00;;;1.80;;
47617;SDS011;33336;36.728;-4.414;2022-07-18T08:23:14;8.82;;;1.90;;
47617;SDS011;33336;36.728;-4.414;2022-07-18T08:28:20;3.00;;;1.88;;
47617;SDS011;33336;36.728;-4.414;2022-07-18T08:33:22;8.93;;;2.22;;
47617;SDS011;33336;36.728;-4.414;2022-07-18T08:38:27;7.75;;;1.75;;
47617;SDS011;33336;36.728;-4.414;2022-07-18T08:43:31;5.28;;;2.00;;
47617;SDS011;33336;36.728;-4.414;2022-07-18T08:48:36;7.25;;;1.70;;
47617;SDS011;33336;36.728;-4.414;2022-07-18T08:53:40;3.03;;;1.80;;
47617;SDS011;33336;36.728;-4.414;2022-07-18T08:58:45;7.28;;;2.55;;
47617;SDS011;33336;36.728;-4.414;2022-07-18T09:03:47;3.72;;;2.17;;
47617;SDS011;33336;36.728;-4.414;2022-07-18T09:09:10;6.93;;;1.75;;
47617;SDS011;33336;36.728;-4.414;2022-07-18T09:14:28;4.22;;;1.35;;
47617;SDS011;33336;36.728;-4.414;2022-07-18T09:19:32;2.95;;;1.60;;
47617;SDS011;33336;36.728;-4.414;2022-07-18T09:24:41;8.05;;;2.42;;
47617;SDS011;33336;36.728;-4.414;2022-07-18T09:30:08;6.07;;;2.00;;
47617;SDS011;33336;36.728;-4.414;2022-07-18T09:35:18;3.40;;;2.00;;
47617;SDS011;33336;36.728;-4.414;2022-07-18T09:40:23;3.20;;;1.53;;
47617;SDS011;33336;36.728;-4.414;2022-07-18T09:45:30;7.05;;;2.75;;
47617;SDS011;33336;36.728;-4.414;2022-07-18T09:50:34;5.75;;;1.85;;
47617;SDS011;33336;36.728;-4.414;2022-07-18T09:55:43;8.43;;;1.88;;
47617;SDS011;33336;36.728;-4.414;2022-07-18T10:00:49;7.03;;;1.83;;
47617;SDS011;33336;36.728;-4.414;2022-07-18T10:05:54;5.05;;;1.92;;
47617;SDS011;33336;36.728;-4.414;2022-07-18T10:10:59;3.95;;;1.40;;
47617;SDS011;33336;36.728;-4.414;2022-07-18T10:16:04;2.15;;;1.50;;
47617;SDS011;33336;36.728;-4.414;2022-07-18T10:21:08;5.07;;;1.88;;
47617;SDS011;33336;36.728;-4.414;2022-07-18T10:26:14;3.33;;;1.60;;
47617;SDS011;33336;36.728;-4.414;2022-07-18T10:31:19;8.40;;;1.75;;
47617;SDS011;33336;36.728;-4.414;2022-07-18T10:36:23;3.63;;;1.70;;
47617;SDS011;33336;36.728;-4.414;2022-07-18T10:41:26;2.67;;;1.50;;
47617;SDS011;33336;36.728;-4.414;2022-07-18T10:52:05;2.03;;;1.25;;
47617;SDS011;33336;36.728;-4.414;2022-07-18T10:57:09;4.45;;;1.75;;
47617;SDS011;33336;36.728;-4.414;2022-07-18T11:02:14;3.40;;;1.60;;
47617;SDS011;33336;36.728;-4.414;2022-07-18T11:07:17;5.22;;;2.35;;
47617;SDS011;33336;36.728;-4.414;2022-07-18T11:12:21;2.78;;;1.67;;
47617;SDS011;33336;36.728;-4.414;2022-07-18T11:23:01;3.42;;;1.73;;
47617;SDS011;33336;36.728;-4.414;2022-07-18T11:28:07;4.90;;;1.52;;
47617;SDS011;33336;36.728;-4.414;2022-07-18T11:33:21;2.73;;;1.77;;
47617;SDS011;33336;36.728;-4.414;2022-07-18T11:38:26;4.03;;;1.58;;
47617;SDS011;33336;36.728;-4.414;2022-07-18T11:43:29;3.60;;;1.67;;
47617;SDS011;33336;36.728;-4.414;2022-07-18T11:48:34;5.90;;;1.90;;
47617;SDS011;33336;36.728;-4.414;2022-07-18T11:53:42;5.07;;;1.90;;
47617;SDS011;33336;36.728;-4.414;2022-07-18T11:58:45;4.18;;;1.77;;
47617;SDS011;33336;36.728;-4.414;2022-07-18T12:03:50;2.15;;;1.25;;
47617;SDS011;33336;36.728;-4.414;2022-07-18T12:08:53;6.88;;;1.50;;
47617;SDS011;33336;36.728;-4.414;2022-07-18T12:13:58;4.85;;;1.60;;
47617;SDS011;33336;36.728;-4.414;2022-07-18T12:19:05;2.35;;;1.30;;
47617;SDS011;33336;36.728;-4.414;2022-07-18T12:24:19;2.55;;;1.08;;
47617;SDS011;33336;36.728;-4.414;2022-07-18T12:29:31;4.60;;;1.45;;
47617;SDS011;33336;36.728;-4.414;2022-07-18T12:34:36;2.63;;;1.90;;
47617;SDS011;33336;36.728;-4.414;2022-07-18T12:39:57;5.40;;;1.92;;
47617;SDS011;33336;36.728;-4.414;2022-07-18T12:45:00;3.60;;;1.70;;
47617;SDS011;33336;36.728;-4.414;2022-07-18T12:50:07;2.80;;;1.67;;
47617;SDS011;33336;36.728;-4.414;2022-07-18T12:55:10;4.57;;;1.50;;
47617;SDS011;33336;36.728;-4.414;2022-07-18T13:00:13;3.55;;;1.33;;
47617;SDS011;33336;36.728;-4.414;2022-07-18T13:05:18;7.15;;;2.00;;
47617;SDS011;33336;36.728;-4.414;2022-07-18T13:10:21;5.97;;;1.50;;
47617;SDS011;33336;36.728;-4.414;2022-07-18T13:15:24;4.38;;;1.30;;
47617;SDS011;33336;36.728;-4.414;2022-07-18T13:20:28;3.20;;;1.40;;
47617;SDS011;33336;36.728;-4.414;2022-07-18T13:25:32;3.33;;;1.40;;
47617;SDS011;33336;36.728;-4.414;2022-07-18T13:30:35;2.65;;;1.42;;
47617;SDS011;33336;36.728;-4.414;2022-07-18T13:35:40;5.50;;;1.80;;
47617;SDS011;33336;36.728;-4.414;2022-07-18T13:40:43;3.00;;;1.45;;
47617;SDS011;33336;36.728;-4.414;2022-07-18T13:45:46;2.95;;;1.30;;
47617;SDS011;33336;36.728;-4.414;2022-07-18T13:50:50;2.08;;;1.17;;
47617;SDS011;33336;36.728;-4.414;2022-07-18T13:55:53;3.05;;;1.40;;
47617;SDS011;33336;36.728;-4.414;2022-07-18T14:00:56;6.22;;;1.40;;
47617;SDS011;33336;36.728;-4.414;2022-07-18T14:06:01;3.45;;;1.40;;
47617;SDS011;33336;36.728;-4.414;2022-07-18T14:11:04;2.83;;;1.25;;
47617;SDS011;33336;36.728;-4.414;2022-07-18T14:16:07;6.10;;;1.67;;
47617;SDS011;33336;36.728;-4.414;2022-07-18T14:21:12;2.20;;;1.33;;
47617;SDS011;33336;36.728;-4.414;2022-07-18T14:26:15;3.23;;;1.20;;
47617;SDS011;33336;36.728;-4.414;2022-07-18T14:31:19;3.80;;;1.80;;
47617;SDS011;33336;36.728;-4.414;2022-07-18T14:36:24;3.28;;;1.35;;
47617;SDS011;33336;36.728;-4.414;2022-07-18T14:41:27;1.27;;;1.17;;
47617;SDS011;33336;36.728;-4.414;2022-07-18T14:46:30;3.53;;;1.20;;
47617;SDS011;33336;36.728;-4.414;2022-07-18T14:51:35;2.22;;;1.45;;
47617;SDS011;33336;36.728;-4.414;2022-07-18T14:56:38;3.20;;;1.25;;
47617;SDS011;33336;36.728;-4.414;2022-07-18T15:01:42;1.00;;;0.90;;
47617;SDS011;33336;36.728;-4.414;2022-07-18T15:06:46;2.10;;;1.17;;
47617;SDS011;33336;36.728;-4.414;2022-07-18T15:11:50;5.60;;;1.10;;
47617;SDS011;33336;36.728;-4.414;2022-07-18T15:16:53;3.70;;;1.17;;
47617;SDS011;33336;36.728;-4.414;2022-07-18T15:21:57;4.50;;;1.50;;
47617;SDS011;33336;36.728;-4.414;2022-07-18T15:27:00;4.80;;;1.10;;
47617;SDS011;33336;36.728;-4.414;2022-07-18T15:32:04;5.57;;;1.50;;
47617;SDS011;33336;36.728;-4.414;2022-07-18T15:37:11;3.90;;;1.50;;
47617;SDS011;33336;36.728;-4.414;2022-07-18T15:42:14;7.07;;;1.45;;
47617;SDS011;33336;36.728;-4.414;2022-07-18T15:47:17;3.40;;;1.52;;
47617;SDS011;33336;36.728;-4.414;2022-07-18T15:52:21;4.50;;;1.67;;
47617;SDS011;33336;36.728;-4.414;2022-07-18T15:57:24;4.77;;;1.27;;
47617;SDS011;33336;36.728;-4.414;2022-07-18T16:02:28;3.53;;;1.35;;
47617;SDS011;33336;36.728;-4.414;2022-07-18T16:07:32;3.28;;;1.60;;
47617;SDS011;33336;36.728;-4.414;2022-07-18T16:12:36;1.90;;;1.10;;
47617;SDS011;33336;36.728;-4.414;2022-07-18T16:17:39;5.15;;;1.40;;
47617;SDS011;33336;36.728;-4.414;2022-07-18T16:22:43;4.32;;;1.30;;
47617;SDS011;33336;36.728;-4.414;2022-07-18T16:27:46;1.30;;;1.00;;
47617;SDS011;33336;36.728;-4.414;2022-07-18T16:32:50;3.08;;;1.30;;
47617;SDS011;33336;36.728;-4.414;2022-07-18T16:37:55;3.38;;;1.20;;
47617;SDS011;33336;36.728;-4.414;2022-07-18T16:42:59;5.75;;;1.42;;
47617;SDS011;33336;36.728;-4.414;2022-07-18T16:48:02;3.58;;;1.15;;
47617;SDS011;33336;36.728;-4.414;2022-07-18T16:53:08;2.17;;;1.17;;
47617;SDS011;33336;36.728;-4.414;2022-07-18T16:58:11;4.30;;;1.30;;
47617;SDS011;33336;36.728;-4.414;2022-07-18T17:03:15;3.22;;;1.48;;
47617;SDS011;33336;36.728;-4.414;2022-07-18T17:08:20;4.85;;;1.20;;
47617;SDS011;33336;36.728;-4.414;2022-07-18T17:13:24;3.85;;;1.58;;
47617;SDS011;33336;36.728;-4.414;2022-07-18T17:18:27;2.13;;;0.83;;
47617;SDS011;33336;36.728;-4.414;2022-07-18T17:23:32;3.47;;;1.38;;
47617;SDS011;33336;36.728;-4.414;2022-07-18T17:28:36;5.28;;;1.52;;
47617;SDS011;33336;36.728;-4.414;2022-07-18T17:33:40;2.15;;;0.93;;
47617;SDS011;33336;36.728;-4.414;2022-07-18T17:38:45;4.18;;;1.50;;
47617;SDS011;33336;36.728;-4.414;2022-07-18T17:43:49;2.70;;;1.20;;
47617;SDS011;33336;36.728;-4.414;2022-07-18T17:48:52;1.88;;;1.00;;
47617;SDS011;33336;36.728;-4.414;2022-07-18T17:53:57;1.35;;;1.20;;
47617;SDS011;33336;36.728;-4.414;2022-07-18T18:04:04;3.42;;;1.23;;
47617;SDS011;33336;36.728;-4.414;2022-07-18T18:09:08;3.35;;;1.40;;
47617;SDS011;33336;36.728;-4.414;2022-07-18T18:14:12;1.67;;;1.05;;
47617;SDS011;33336;36.728;-4.414;2022-07-18T18:19:15;5.45;;;1.55;;
47617;SDS011;33336;36.728;-4.414;2022-07-18T18:24:19;6.78;;;1.80;;
47617;SDS011;33336;36.728;-4.414;2022-07-18T18:29:22;3.15;;;1.38;;
47617;SDS011;33336;36.728;-4.414;2022-07-18T18:34:26;2.67;;;1.40;;
47617;SDS011;33336;36.728;-4.414;2022-07-18T18:39:31;2.65;;;1.25;;
47617;SDS011;33336;36.728;-4.414;2022-07-18T18:44:36;3.33;;;1.77;;
47617;SDS011;33336;36.728;-4.414;2022-07-18T18:49:39;3.40;;;1.45;;
47617;SDS011;33336;36.728;-4.414;2022-07-18T18:54:44;4.60;;;1.23;;
47617;SDS011;33336;36.728;-4.414;2022-07-18T18:59:47;1.60;;;1.50;;
47617;SDS011;33336;36.728;-4.414;2022-07-18T19:04:51;2.40;;;1.38;;
47617;SDS011;33336;36.728;-4.414;2022-07-18T19:09:56;2.53;;;1.25;;
47617;SDS011;33336;36.728;-4.414;2022-07-18T19:15:01;3.63;;;1.13;;
47617;SDS011;33336;36.728;-4.414;2022-07-18T19:20:05;4.28;;;1.73;;
47617;SDS011;33336;36.728;-4.414;2022-07-18T19:25:10;2.47;;;1.55;;
47617;SDS011;33336;36.728;-4.414;2022-07-18T19:30:14;9.57;;;2.28;;
47617;SDS011;33336;36.728;-4.414;2022-07-18T19:35:18;2.88;;;1.77;;
47617;SDS011;33336;36.728;-4.414;2022-07-18T19:40:23;4.07;;;2.13;;
47617;SDS011;33336;36.728;-4.414;2022-07-18T19:45:27;6.80;;;2.08;;
47617;SDS011;33336;36.728;-4.414;2022-07-18T19:50:30;3.60;;;1.92;;
47617;SDS011;33336;36.728;-4.414;2022-07-18T19:55:34;5.20;;;2.78;;
47617;SDS011;33336;36.728;-4.414;2022-07-18T20:00:38;8.45;;;2.58;;
47617;SDS011;33336;36.728;-4.414;2022-07-18T20:05:42;12.45;;;3.22;;
47617;SDS011;33336;36.728;-4.414;2022-07-18T20:10:46;9.57;;;2.47;;
47617;SDS011;33336;36.728;-4.414;2022-07-18T20:15:50;5.25;;;2.08;;
47617;SDS011;33336;36.728;-4.414;2022-07-18T20:20:53;8.80;;;3.13;;
47617;SDS011;33336;36.728;-4.414;2022-07-18T20:25:57;4.07;;;2.45;;
47617;SDS011;33336;36.728;-4.414;2022-07-18T20:31:00;5.70;;;2.97;;
47617;SDS011;33336;36.728;-4.414;2022-07-18T20:36:03;5.97;;;3.20;;
47617;SDS011;33336;36.728;-4.414;2022-07-18T20:41:08;5.13;;;2.90;;
47617;SDS011;33336;36.728;-4.414;2022-07-18T20:46:12;5.05;;;2.63;;
47617;SDS011;33336;36.728;-4.414;2022-07-18T20:51:15;5.80;;;2.80;;
47617;SDS011;33336;36.728;-4.414;2022-07-18T20:56:20;3.92;;;2.35;;
47617;SDS011;33336;36.728;-4.414;2022-07-18T21:01:23;5.55;;;2.90;;
47617;SDS011;33336;36.728;-4.414;2022-07-18T21:06:26;5.00;;;2.75;;
47617;SDS011;33336;36.728;-4.414;2022-07-18T21:11:30;4.20;;;2.70;;
47617;SDS011;33336;36.728;-4.414;2022-07-18T21:16:34;6.78;;;3.50;;
47617;SDS011;33336;36.728;-4.414;2022-07-18T21:21:37;4.78;;;3.33;;
47617;SDS011;33336;36.728;-4.414;2022-07-18T21:26:41;4.63;;;2.50;;
47617;SDS011;33336;36.728;-4.414;2022-07-18T21:31:43;9.48;;;3.53;;
47617;SDS011;33336;36.728;-4.414;2022-07-18T21:36:46;6.95;;;3.10;;
47617;SDS011;33336;36.728;-4.414;2022-07-18T21:41:50;5.25;;;2.78;;
47617;SDS011;33336;36.728;-4.414;2022-07-18T21:46:53;3.33;;;2.47;;
47617;SDS011;33336;36.728;-4.414;2022-07-18T21:51:57;6.75;;;2.78;;
47617;SDS011;33336;36.728;-4.414;2022-07-18T21:57:01;7.13;;;3.05;;
47617;SDS011;33336;36.728;-4.414;2022-07-18T22:02:05;7.03;;;3.28;;
47617;SDS011;33336;36.728;-4.414;2022-07-18T22:07:08;5.43;;;2.80;;
47617;SDS011;33336;36.728;-4.414;2022-07-18T22:12:12;4.60;;;3.10;;
47617;SDS011;33336;36.728;-4.414;2022-07-18T22:17:15;6.22;;;3.90;;
47617;SDS011;33336;36.728;-4.414;2022-07-18T22:22:19;9.95;;;3.00;;
47617;SDS011;33336;36.728;-4.414;2022-07-18T22:27:24;7.82;;;2.90;;
47617;SDS011;33336;36.728;-4.414;2022-07-18T22:32:30;3.65;;;2.75;;
47617;SDS011;33336;36.728;-4.414;2022-07-18T22:37:33;4.78;;;2.60;;
47617;SDS011;33336;36.728;-4.414;2022-07-18T22:42:38;5.82;;;3.30;;
47617;SDS011;33336;36.728;-4.414;2022-07-18T22:47:42;4.55;;;3.22;;
47617;SDS011;33336;36.728;-4.414;2022-07-18T22:52:45;6.90;;;3.22;;
47617;SDS011;33336;36.728;-4.414;2022-07-18T22:57:49;10.07;;;3.53;;
47617;SDS011;33336;36.728;-4.414;2022-07-18T23:02:53;6.50;;;3.17;;
47617;SDS011;33336;36.728;-4.414;2022-07-18T23:07:57;5.00;;;2.80;;
47617;SDS011;33336;36.728;-4.414;2022-07-18T23:13:02;7.50;;;2.80;;
47617;SDS011;33336;36.728;-4.414;2022-07-18T23:18:06;6.90;;;2.38;;
47617;SDS011;33336;36.728;-4.414;2022-07-18T23:23:10;4.68;;;2.55;;
47617;SDS011;33336;36.728;-4.414;2022-07-18T23:28:14;3.75;;;2.33;;
47617;SDS011;33336;36.728;-4.414;2022-07-18T23:33:18;4.07;;;2.30;;
47617;SDS011;33336;36.728;-4.414;2022-07-18T23:38:20;5.32;;;2.30;;
47617;SDS011;33336;36.728;-4.414;2022-07-18T23:43:25;3.90;;;2.38;;
47617;SDS011;33336;36.728;-4.414;2022-07-18T23:48:28;9.43;;;2.28;;
47617;SDS011;33336;36.728;-4.414;2022-07-18T23:53:31;3.20;;;2.50;;
47617;SDS011;33336;36.728;-4.414;2022-07-18T23:58:35;4.35;;;2.95;;
